createdAt,value
2022-08-26T00:01:54.437Z,6.00
2022-08-26T00:04:23.805Z,5.88
2022-08-26T00:06:52.381Z,5.70
2022-08-26T00:09:19.515Z,5.45
2022-08-26T00:11:46.707Z,6.97
2022-08-26T00:14:16.394Z,6.10
2022-08-26T00:16:47.627Z,6.03
2022-08-26T00:19:28.541Z,6.57
2022-08-26T00:21:55.793Z,6.03
2022-08-26T00:24:23.534Z,6.30
2022-08-26T00:26:50.901Z,6.07
2022-08-26T00:29:19.050Z,5.80
2022-08-26T00:31:48.359Z,5.93
2022-08-26T00:34:16.766Z,6.75
2022-08-26T00:36:47.021Z,6.80
2022-08-26T00:39:14.238Z,6.97
2022-08-26T00:41:41.851Z,6.43
2022-08-26T00:44:11.200Z,6.13
2022-08-26T00:46:47.584Z,5.47
2022-08-26T00:49:40.765Z,6.18
2022-08-26T00:52:14.662Z,6.10
2022-08-26T00:54:53.496Z,6.40
2022-08-26T00:57:22.371Z,6.18
2022-08-26T00:59:56.856Z,5.32
2022-08-26T01:02:24.794Z,6.20
2022-08-26T01:04:57.840Z,6.18
2022-08-26T01:07:31.261Z,5.68
2022-08-26T01:10:01.899Z,5.47
2022-08-26T01:12:38.859Z,5.78
2022-08-26T01:15:11.255Z,5.60
2022-08-26T01:17:41.164Z,6.57
2022-08-26T01:20:24.828Z,5.15
2022-08-26T01:23:04.399Z,6.03
2022-08-26T01:25:34.967Z,6.15
2022-08-26T01:28:10.211Z,5.57
2022-08-26T01:30:40.500Z,6.28
2022-08-26T01:33:15.909Z,5.57
2022-08-26T01:35:44.216Z,5.60
2022-08-26T01:38:12.924Z,6.00
2022-08-26T01:40:43.075Z,5.35
2022-08-26T01:43:17.550Z,5.45
2022-08-26T01:45:46.873Z,6.00
2022-08-26T01:48:20.964Z,5.22
2022-08-26T01:50:48.464Z,5.78
2022-08-26T01:53:18.590Z,5.32
2022-08-26T01:55:53.299Z,5.57
2022-08-26T01:58:48.372Z,5.93
2022-08-26T02:01:16.939Z,5.97
2022-08-26T02:03:58.651Z,5.88
2022-08-26T02:06:25.906Z,5.60
2022-08-26T02:08:56.262Z,6.07
2022-08-26T02:11:23.680Z,6.93
2022-08-26T02:13:57.188Z,6.53
2022-08-26T02:16:32.221Z,5.25
2022-08-26T02:19:01.725Z,5.63
2022-08-26T02:21:31.078Z,6.75
2022-08-26T02:24:13.332Z,6.30
2022-08-26T02:26:40.879Z,6.80
2022-08-26T02:29:25.484Z,5.57
2022-08-26T02:31:55.758Z,5.28
2022-08-26T02:34:31.096Z,5.78
2022-08-26T02:37:01.292Z,5.35
2022-08-26T02:39:29.829Z,5.43
2022-08-26T02:41:58.116Z,5.82
2022-08-26T02:44:26.558Z,5.25
2022-08-26T02:46:54.695Z,6.65
2022-08-26T02:49:23.771Z,5.55
2022-08-26T02:51:51.879Z,5.95
2022-08-26T02:54:21.590Z,5.78
2022-08-26T02:56:49.373Z,6.05
2022-08-26T02:59:16.402Z,5.78
2022-08-26T03:01:45.268Z,5.95
2022-08-26T03:04:13.206Z,6.30
2022-08-26T03:06:42.335Z,5.53
2022-08-26T03:09:09.892Z,5.85
2022-08-26T03:11:41.201Z,5.57
2022-08-26T03:14:08.554Z,7.00
2022-08-26T03:16:37.838Z,5.75
2022-08-26T03:19:07.956Z,7.15
2022-08-26T03:21:37.070Z,5.53
2022-08-26T03:24:05.496Z,6.75
2022-08-26T03:26:32.621Z,6.20
2022-08-26T03:29:18.452Z,6.45
2022-08-26T03:31:47.066Z,7.20
2022-08-26T03:34:14.865Z,6.70
2022-08-26T03:36:42.276Z,5.95
2022-08-26T03:39:12.046Z,6.35
2022-08-26T03:41:40.636Z,6.35
2022-08-26T03:44:09.059Z,6.18
2022-08-26T03:46:37.384Z,6.55
2022-08-26T03:49:06.901Z,6.55
2022-08-26T03:51:38.746Z,7.50
2022-08-26T03:54:08.225Z,6.90
2022-08-26T03:56:36.779Z,6.45
2022-08-26T03:59:05.118Z,6.43
2022-08-26T04:01:34.967Z,6.35
2022-08-26T04:04:02.308Z,5.85
2022-08-26T04:06:36.000Z,6.95
2022-08-26T04:09:09.393Z,6.53
2022-08-26T04:11:39.613Z,6.20
2022-08-26T04:14:17.684Z,7.13
2022-08-26T04:16:48.328Z,6.65
2022-08-26T04:19:16.826Z,6.32
2022-08-26T04:21:45.130Z,6.40
2022-08-26T04:24:15.660Z,6.32
2022-08-26T04:26:43.881Z,6.10
2022-08-26T04:29:20.307Z,5.85
2022-08-26T04:31:55.567Z,6.47
2022-08-26T04:34:29.005Z,6.00
2022-08-26T04:36:58.057Z,5.95
2022-08-26T04:39:25.450Z,5.80
2022-08-26T04:41:55.661Z,6.10
2022-08-26T04:44:29.155Z,5.88
2022-08-26T04:46:57.452Z,5.97
2022-08-26T04:49:26.107Z,5.95
2022-08-26T04:51:55.022Z,5.35
2022-08-26T04:54:22.831Z,6.03
2022-08-26T04:56:52.239Z,6.18
2022-08-26T04:59:19.325Z,6.75
2022-08-26T05:01:51.753Z,7.05
2022-08-26T05:04:21.191Z,5.60
2022-08-26T05:06:48.735Z,5.80
2022-08-26T05:09:16.166Z,5.88
2022-08-26T05:11:43.192Z,6.30
2022-08-26T05:14:10.315Z,6.50
2022-08-26T05:16:38.982Z,5.90
2022-08-26T05:19:08.698Z,6.65
2022-08-26T05:21:36.574Z,6.28
2022-08-26T05:24:04.754Z,5.95
2022-08-26T05:26:32.543Z,5.68
2022-08-26T05:28:59.736Z,6.53
2022-08-26T05:31:31.861Z,5.22
2022-08-26T05:34:00.693Z,6.53
2022-08-26T05:36:34.959Z,6.10
2022-08-26T05:39:07.927Z,6.60
2022-08-26T05:41:41.477Z,5.57
2022-08-26T05:44:14.028Z,6.25
2022-08-26T05:46:42.499Z,6.13
2022-08-26T05:49:13.904Z,5.90
2022-08-26T05:51:47.560Z,6.68
2022-08-26T05:54:22.399Z,7.20
2022-08-26T05:56:51.356Z,6.35
2022-08-26T05:59:21.266Z,5.95
2022-08-26T06:01:53.225Z,6.22
2022-08-26T06:04:20.377Z,6.80
2022-08-26T06:06:47.589Z,5.93
2022-08-26T06:09:14.805Z,7.32
2022-08-26T06:11:45.524Z,7.28
2022-08-26T06:14:12.864Z,6.40
2022-08-26T06:16:45.547Z,7.00
2022-08-26T06:19:15.582Z,6.47
2022-08-26T06:21:47.219Z,6.82
2022-08-26T06:24:37.553Z,6.75
2022-08-26T06:27:09.658Z,7.47
2022-08-26T06:29:39.187Z,7.15
2022-08-26T06:32:06.923Z,6.90
2022-08-26T06:34:35.929Z,6.30
2022-08-26T06:37:03.535Z,6.28
2022-08-26T06:39:31.786Z,5.85
2022-08-26T06:42:00.822Z,7.10
2022-08-26T06:44:30.393Z,7.00
2022-08-26T06:46:57.534Z,6.47
2022-08-26T06:49:25.855Z,7.20
2022-08-26T06:51:59.615Z,6.32
2022-08-26T06:54:28.765Z,6.75
2022-08-26T06:56:57.205Z,6.10
2022-08-26T06:59:24.878Z,6.50
2022-08-26T07:01:52.443Z,6.32
2022-08-26T07:04:22.462Z,6.53
2022-08-26T07:06:53.394Z,6.88
2022-08-26T07:09:23.644Z,5.55
2022-08-26T07:11:51.873Z,5.82
2022-08-26T07:14:21.751Z,6.43
2022-08-26T07:16:50.644Z,5.45
2022-08-26T07:19:31.240Z,6.13
2022-08-26T07:22:04.438Z,6.60
2022-08-26T07:24:36.969Z,5.68
2022-08-26T07:27:08.858Z,6.25
2022-08-26T07:29:39.641Z,5.72
2022-08-26T07:32:08.351Z,5.93
2022-08-26T07:34:37.781Z,5.80
2022-08-26T07:37:06.117Z,5.78
2022-08-26T07:39:36.234Z,6.55
2022-08-26T07:42:08.061Z,5.88
2022-08-26T07:44:37.684Z,5.85
2022-08-26T07:47:10.072Z,6.30
2022-08-26T07:49:52.687Z,5.20
2022-08-26T07:52:25.343Z,5.70
2022-08-26T07:54:53.643Z,5.40
2022-08-26T07:57:20.864Z,5.10
2022-08-26T07:59:48.020Z,5.88
2022-08-26T08:02:15.098Z,6.60
2022-08-26T08:04:43.354Z,6.40
2022-08-26T08:07:11.539Z,6.03
2022-08-26T08:09:40.763Z,5.28
2022-08-26T08:12:08.291Z,5.72
2022-08-26T08:14:45.296Z,5.65
2022-08-26T08:17:14.536Z,5.10
2022-08-26T08:19:42.878Z,5.30
2022-08-26T08:22:17.116Z,5.78
2022-08-26T08:24:45.285Z,5.75
2022-08-26T08:27:18.141Z,4.50
2022-08-26T08:29:50.180Z,5.85
2022-08-26T08:32:18.428Z,5.32
2022-08-26T08:34:45.581Z,5.47
2022-08-26T08:37:12.591Z,5.70
2022-08-26T08:39:39.656Z,5.63
2022-08-26T08:42:28.675Z,5.72
2022-08-26T08:44:59.865Z,5.55
2022-08-26T08:47:39.394Z,5.10
2022-08-26T08:50:30.564Z,5.68
2022-08-26T08:53:37.705Z,5.30
2022-08-26T08:56:10.904Z,5.63
2022-08-26T08:58:46.590Z,5.47
2022-08-26T09:01:30.239Z,6.50
2022-08-26T09:04:33.710Z,5.93
2022-08-26T09:07:03.015Z,6.10
2022-08-26T09:09:46.188Z,5.57
2022-08-26T09:12:29.383Z,6.35
2022-08-26T09:15:30.436Z,6.57
2022-08-26T09:18:21.514Z,6.07
2022-08-26T09:21:07.906Z,5.82
2022-08-26T09:23:38.700Z,5.20
2022-08-26T09:26:30.915Z,5.38
2022-08-26T09:29:08.995Z,4.93
2022-08-26T09:31:39.180Z,5.72
2022-08-26T09:34:26.462Z,5.18
2022-08-26T09:37:00.191Z,4.82
2022-08-26T09:39:38.166Z,5.30
2022-08-26T09:42:25.621Z,4.80
2022-08-26T09:45:06.910Z,5.35
2022-08-26T09:47:39.310Z,5.72
2022-08-26T09:50:50.018Z,5.43
2022-08-26T09:53:25.218Z,4.35
2022-08-26T09:56:25.502Z,5.47
2022-08-26T09:58:56.702Z,4.57
2022-08-26T10:01:23.698Z,4.47
2022-08-26T10:03:51.966Z,5.22
2022-08-26T10:06:20.962Z,5.45
2022-08-26T10:09:09.688Z,4.93
2022-08-26T10:11:57.275Z,4.40
2022-08-26T10:14:37.220Z,4.13
2022-08-26T10:17:32.938Z,4.72
2022-08-26T10:20:27.444Z,5.15
2022-08-26T10:23:14.097Z,5.47
2022-08-26T10:26:08.504Z,5.07
2022-08-26T10:28:56.718Z,5.47
2022-08-26T10:31:55.172Z,5.20
2022-08-26T10:34:29.705Z,5.18
2022-08-26T10:37:13.874Z,5.22
2022-08-26T10:39:57.200Z,4.50
2022-08-26T10:42:42.806Z,4.50
2022-08-26T10:45:16.598Z,5.05
2022-08-26T10:48:16.537Z,5.15
2022-08-26T10:50:47.984Z,4.93
2022-08-26T10:53:18.269Z,4.82
2022-08-26T10:56:15.698Z,3.97
2022-08-26T10:59:18.226Z,5.75
2022-08-26T11:02:11.235Z,5.30
2022-08-26T11:04:56.166Z,4.97
2022-08-26T11:07:43.127Z,4.70
2022-08-26T11:10:22.924Z,4.35
2022-08-26T11:13:19.062Z,5.20
2022-08-26T11:15:45.900Z,5.15
2022-08-26T11:18:42.694Z,4.95
2022-08-26T11:22:06.131Z,5.00
2022-08-26T11:24:44.729Z,5.30
2022-08-26T11:27:24.316Z,5.55
2022-08-26T11:30:01.710Z,5.45
2022-08-26T11:32:34.733Z,5.53
2022-08-26T11:35:12.069Z,5.15
2022-08-26T11:38:25.172Z,4.70
2022-08-26T11:41:08.851Z,5.00
2022-08-26T11:43:39.570Z,4.78
2022-08-26T11:46:11.181Z,4.55
2022-08-26T11:48:42.704Z,5.53
2022-08-26T11:51:13.851Z,5.35
2022-08-26T11:53:47.103Z,6.30
2022-08-26T11:56:34.640Z,4.97
2022-08-26T11:59:12.836Z,5.15
2022-08-26T12:01:44.606Z,4.50
2022-08-26T12:04:31.420Z,5.53
2022-08-26T12:07:00.983Z,5.28
2022-08-26T12:09:34.608Z,5.50
2022-08-26T12:12:18.046Z,4.90
2022-08-26T12:14:45.406Z,4.80
2022-08-26T12:17:18.577Z,5.72
2022-08-26T12:19:46.467Z,5.13
2022-08-26T12:22:26.538Z,5.03
2022-08-26T12:24:58.601Z,5.40
2022-08-26T12:27:32.687Z,4.90
2022-08-26T12:30:09.034Z,4.65
2022-08-26T12:32:57.609Z,5.25
2022-08-26T12:35:28.918Z,4.90
2022-08-26T12:37:57.628Z,5.18
2022-08-26T12:40:41.870Z,6.07
2022-08-26T12:43:11.667Z,5.18
2022-08-26T12:45:58.112Z,5.07
2022-08-26T12:48:35.983Z,5.13
2022-08-26T12:51:04.019Z,4.97
2022-08-26T12:53:34.906Z,4.70
2022-08-26T12:56:20.239Z,4.70
2022-08-26T12:59:23.780Z,4.85
2022-08-26T13:01:52.342Z,5.15
2022-08-26T13:04:32.271Z,4.05
2022-08-26T13:07:24.934Z,4.25
2022-08-26T13:09:58.114Z,3.72
2022-08-26T13:12:33.654Z,4.72
2022-08-26T13:15:02.199Z,4.15
2022-08-26T13:17:30.958Z,4.57
2022-08-26T13:20:03.475Z,4.43
2022-08-26T13:22:31.491Z,3.97
2022-08-26T13:24:58.725Z,4.32
2022-08-26T13:27:27.404Z,4.20
2022-08-26T13:29:57.198Z,4.63
2022-08-26T13:32:27.659Z,4.97
2022-08-26T13:34:56.671Z,4.63
2022-08-26T13:37:34.995Z,4.05
2022-08-26T13:40:05.642Z,5.28
2022-08-26T13:42:32.980Z,5.90
2022-08-26T13:45:01.976Z,4.88
2022-08-26T13:47:29.059Z,5.93
2022-08-26T13:49:56.491Z,5.25
2022-08-26T13:52:27.302Z,5.30
2022-08-26T13:55:00.883Z,5.43
2022-08-26T13:57:30.238Z,5.68
2022-08-26T13:59:59.544Z,5.97
2022-08-26T14:02:28.358Z,6.15
2022-08-26T14:04:56.052Z,6.00
2022-08-26T14:07:23.556Z,6.38
2022-08-26T14:09:50.852Z,5.72
2022-08-26T14:12:17.961Z,5.90
2022-08-26T14:14:45.156Z,5.70
2022-08-26T14:17:18.266Z,5.93
2022-08-26T14:19:47.649Z,6.60
2022-08-26T14:22:17.483Z,6.70
2022-08-26T14:24:45.673Z,6.38
2022-08-26T14:27:13.723Z,6.25
2022-08-26T14:29:41.539Z,6.38
2022-08-26T14:32:16.961Z,5.97
2022-08-26T14:34:48.076Z,6.20
2022-08-26T14:37:15.515Z,6.35
2022-08-26T14:39:42.672Z,6.18
2022-08-26T14:42:10.532Z,6.07
2022-08-26T14:44:37.706Z,6.32
2022-08-26T14:47:06.753Z,6.47
2022-08-26T14:49:33.777Z,6.38
2022-08-26T14:52:00.990Z,6.32
2022-08-26T14:54:29.522Z,5.85
2022-08-26T14:57:03.855Z,6.35
2022-08-26T14:59:39.014Z,6.43
2022-08-26T15:02:08.884Z,6.15
2022-08-26T15:04:41.542Z,6.68
2022-08-26T15:07:12.737Z,6.50
2022-08-26T15:09:40.072Z,6.38
2022-08-26T15:12:07.318Z,6.57
2022-08-26T15:14:34.434Z,6.60
2022-08-26T15:17:02.469Z,6.18
2022-08-26T15:19:29.624Z,6.97
2022-08-26T15:21:56.775Z,6.53
2022-08-26T15:24:26.316Z,6.03
2022-08-26T15:26:53.761Z,6.50
2022-08-26T15:29:22.824Z,7.10
2022-08-26T15:31:50.457Z,7.40
2022-08-26T15:34:17.813Z,6.45
2022-08-26T15:36:47.090Z,5.93
2022-08-26T15:39:17.191Z,6.90
2022-08-26T15:41:44.795Z,5.72
2022-08-26T15:44:14.114Z,6.78
2022-08-26T15:46:42.577Z,6.63
2022-08-26T15:49:12.037Z,5.65
2022-08-26T15:51:46.165Z,5.80
2022-08-26T15:54:16.718Z,6.85
2022-08-26T15:56:45.545Z,6.18
2022-08-26T15:59:15.379Z,6.07
2022-08-26T16:01:43.810Z,5.95
2022-08-26T16:04:11.549Z,5.68
2022-08-26T16:06:41.217Z,5.80
2022-08-26T16:09:10.125Z,6.03
2022-08-26T16:11:38.015Z,6.07
2022-08-26T16:14:06.355Z,7.07
2022-08-26T16:16:33.640Z,5.82
2022-08-26T16:19:05.502Z,5.85
2022-08-26T16:21:34.282Z,6.35
2022-08-26T16:24:01.325Z,6.05
2022-08-26T16:26:32.815Z,6.38
2022-08-26T16:29:03.024Z,6.40
2022-08-26T16:31:30.410Z,5.97
2022-08-26T16:33:58.201Z,6.55
2022-08-26T16:36:25.382Z,6.15
2022-08-26T16:38:56.255Z,6.40
2022-08-26T16:41:27.170Z,6.85
2022-08-26T16:43:55.130Z,5.55
2022-08-26T16:46:26.291Z,5.78
2022-08-26T16:48:58.609Z,6.50
2022-08-26T16:51:27.900Z,5.88
2022-08-26T16:53:57.245Z,5.55
2022-08-26T16:56:33.507Z,6.15
2022-08-26T16:59:04.196Z,5.68
2022-08-26T17:01:31.400Z,4.95
2022-08-26T17:03:58.549Z,5.68
2022-08-26T17:06:25.564Z,5.88
2022-08-26T17:08:53.161Z,5.70
2022-08-26T17:11:20.273Z,5.05
2022-08-26T17:13:47.361Z,5.90
2022-08-26T17:16:16.274Z,5.38
2022-08-26T17:18:43.520Z,5.63
2022-08-26T17:21:13.730Z,6.07
2022-08-26T17:23:43.636Z,5.40
2022-08-26T17:26:12.570Z,5.15
2022-08-26T17:28:40.411Z,6.47
2022-08-26T17:31:08.396Z,5.30
2022-08-26T17:33:35.607Z,5.30
2022-08-26T17:36:09.674Z,4.95
2022-08-26T17:38:38.070Z,5.30
2022-08-26T17:41:12.755Z,5.65
2022-08-26T17:43:40.689Z,6.25
2022-08-26T17:46:10.790Z,5.82
2022-08-26T17:48:39.829Z,5.72
2022-08-26T17:51:17.220Z,4.75
2022-08-26T17:53:44.958Z,6.15
2022-08-26T17:56:15.699Z,5.68
2022-08-26T17:58:47.926Z,5.60
2022-08-26T18:01:23.731Z,5.60
2022-08-26T18:03:50.846Z,6.20
2022-08-26T18:06:19.726Z,5.97
2022-08-26T18:08:47.011Z,5.88
2022-08-26T18:11:19.251Z,6.63
2022-08-26T18:13:47.890Z,5.90
2022-08-26T18:16:18.084Z,6.55
2022-08-26T18:18:46.890Z,6.00
2022-08-26T18:21:20.702Z,6.57
2022-08-26T18:23:48.693Z,6.40
2022-08-26T18:26:19.574Z,6.82
2022-08-26T18:28:46.776Z,7.03
2022-08-26T18:31:15.327Z,7.00
2022-08-26T18:33:43.723Z,7.15
2022-08-26T18:36:29.861Z,7.28
2022-08-26T18:38:58.085Z,6.70
2022-08-26T18:41:28.794Z,6.38
2022-08-26T18:43:56.374Z,6.38
2022-08-26T18:46:26.709Z,7.05
2022-08-26T18:48:55.253Z,6.38
2022-08-26T18:51:26.856Z,6.75
2022-08-26T18:53:54.028Z,7.20
2022-08-26T18:56:21.098Z,7.43
2022-08-26T18:58:48.621Z,7.43
2022-08-26T19:01:17.691Z,6.75
2022-08-26T19:03:45.917Z,7.90
2022-08-26T19:06:20.388Z,7.97
2022-08-26T19:08:49.983Z,7.88
2022-08-26T19:11:32.285Z,7.93
2022-08-26T19:14:10.100Z,7.97
2022-08-26T19:16:37.663Z,7.35
2022-08-26T19:19:05.131Z,6.82
2022-08-26T19:21:34.742Z,8.02
2022-08-26T19:24:04.916Z,7.55
2022-08-26T19:26:32.284Z,7.25
2022-08-26T19:29:00.289Z,7.20
2022-08-26T19:31:28.385Z,7.75
2022-08-26T19:33:56.681Z,8.02
2022-08-26T19:36:26.101Z,7.53
2022-08-26T19:38:54.570Z,7.25
2022-08-26T19:41:37.287Z,7.75
2022-08-26T19:44:35.359Z,7.75
2022-08-26T19:47:03.800Z,7.78
2022-08-26T19:49:31.473Z,7.35
2022-08-26T19:51:58.785Z,7.57
2022-08-26T19:54:26.031Z,8.15
2022-08-26T19:56:53.163Z,7.93
2022-08-26T19:59:20.737Z,6.85
2022-08-26T20:01:52.932Z,7.40
2022-08-26T20:04:28.015Z,7.00
2022-08-26T20:06:57.584Z,7.03
2022-08-26T20:09:25.756Z,7.55
2022-08-26T20:11:54.023Z,6.75
2022-08-26T20:14:25.473Z,7.80
2022-08-26T20:16:52.638Z,7.20
2022-08-26T20:19:38.480Z,7.22
2022-08-26T20:22:06.516Z,7.07
2022-08-26T20:24:35.693Z,7.88
2022-08-26T20:27:07.784Z,8.00
2022-08-26T20:29:36.983Z,8.07
2022-08-26T20:32:06.893Z,7.93
2022-08-26T20:34:35.245Z,7.32
2022-08-26T20:37:04.314Z,7.30
2022-08-26T20:39:31.423Z,7.70
2022-08-26T20:41:58.636Z,7.13
2022-08-26T20:44:27.166Z,7.32
2022-08-26T20:46:55.294Z,7.35
2022-08-26T20:49:22.399Z,7.00
2022-08-26T20:51:52.608Z,7.30
2022-08-26T20:54:26.276Z,7.70
2022-08-26T20:56:57.853Z,6.78
2022-08-26T20:59:26.305Z,8.88
2022-08-26T21:01:53.400Z,8.63
2022-08-26T21:04:24.316Z,7.90
2022-08-26T21:06:52.741Z,8.50
2022-08-26T21:09:23.010Z,8.05
2022-08-26T21:11:51.330Z,7.53
2022-08-26T21:14:20.618Z,7.32
2022-08-26T21:16:48.027Z,8.35
2022-08-26T21:19:18.230Z,7.75
2022-08-26T21:21:47.998Z,7.13
2022-08-26T21:24:15.531Z,8.27
2022-08-26T21:26:43.394Z,7.88
2022-08-26T21:29:10.485Z,8.45
2022-08-26T21:31:43.550Z,8.15
2022-08-26T21:34:14.014Z,9.60
2022-08-26T21:36:41.056Z,8.18
2022-08-26T21:39:11.673Z,8.50
2022-08-26T21:41:40.704Z,8.82
2022-08-26T21:44:08.902Z,7.82
2022-08-26T21:46:37.401Z,8.63
2022-08-26T21:49:09.704Z,8.05
2022-08-26T21:51:41.246Z,8.68
2022-08-26T21:54:11.304Z,7.38
2022-08-26T21:56:44.360Z,7.95
2022-08-26T21:59:12.410Z,8.48
2022-08-26T22:01:39.529Z,8.13
2022-08-26T22:04:09.541Z,8.15
2022-08-26T22:06:45.614Z,7.65
2022-08-26T22:09:15.732Z,8.52
2022-08-26T22:11:43.222Z,8.10
2022-08-26T22:14:11.097Z,7.55
2022-08-26T22:16:38.388Z,8.35
2022-08-26T22:19:05.926Z,8.02
2022-08-26T22:21:35.420Z,8.32
2022-08-26T22:24:04.770Z,8.52
2022-08-26T22:26:34.610Z,7.72
2022-08-26T22:29:02.544Z,7.43
2022-08-26T22:31:37.268Z,7.25
2022-08-26T22:34:12.098Z,8.20
2022-08-26T22:36:44.694Z,8.15
2022-08-26T22:39:18.911Z,8.23
2022-08-26T22:41:48.807Z,10.05
2022-08-26T22:44:18.060Z,7.75
2022-08-26T22:46:46.774Z,8.45
2022-08-26T22:49:16.534Z,7.90
2022-08-26T22:51:45.058Z,7.18
2022-08-26T22:54:13.004Z,7.28
2022-08-26T22:56:40.771Z,8.77
2022-08-26T22:59:09.504Z,8.68
2022-08-26T23:01:40.104Z,8.13
2022-08-26T23:04:08.551Z,8.40
2022-08-26T23:06:38.390Z,8.23
2022-08-26T23:09:07.378Z,8.27
2022-08-26T23:11:34.866Z,8.52
2022-08-26T23:14:05.063Z,8.45
2022-08-26T23:16:41.715Z,7.82
2022-08-26T23:19:12.434Z,8.40
2022-08-26T23:21:39.975Z,9.35
2022-08-26T23:24:08.693Z,8.02
2022-08-26T23:26:37.367Z,8.85
2022-08-26T23:29:08.174Z,8.60
2022-08-26T23:31:38.878Z,8.35
2022-08-26T23:34:25.066Z,8.48
2022-08-26T23:36:52.841Z,8.50
2022-08-26T23:39:21.244Z,8.57
2022-08-26T23:41:48.527Z,8.55
2022-08-26T23:44:15.564Z,8.77
2022-08-26T23:46:42.679Z,8.30
2022-08-26T23:49:09.805Z,9.35
2022-08-26T23:51:57.374Z,8.30
2022-08-26T23:54:25.477Z,9.20
2022-08-26T23:56:52.528Z,9.15
2022-08-26T23:59:19.638Z,10.07
